Time;durP1;ratioP1;P1;durP2;ratioP2;P2;SDS_P1;SDS_P2;PMS_P1;PMS_P2;Temp;Humidity;BMP_temperature;BMP_pressure;BME280_temperature;BME280_humidity;BME280_pressure;Samples;Min_cycle;Max_cycle;Signal;HPM_P1;HPM_P2
2022/09/26 00:02:23;;;;;;;;;;;;;;;7.29;100.00;97409.06;5007686;28;20029;-45
2022/09/26 00:04:50;;;;;;;;;;;;;;;7.21;100.00;97401.69;5010108;28;19933;-44
2022/09/26 00:07:17;;;;;;;;;;;;;;;7.24;100.00;97401.50;5008680;28;19929;-43
2022/09/26 00:09:45;;;;;;;;;;;;;;;7.13;100.00;97390.03;4990280;28;20031;-44
2022/09/26 00:12:12;;;;;;;;;;;;;;;7.05;100.00;97392.22;5007507;28;19925;-45
2022/09/26 00:14:39;;;;;;;;;;;;;;;6.99;100.00;97382.97;5009413;28;20036;-44
2022/09/26 00:17:08;;;;;;;;;;;;;;;6.94;100.00;97379.81;5009270;28;19926;-44
2022/09/26 00:19:35;;;;;;;;;;;;;;;6.90;100.00;97375.69;5007537;28;19968;-44
2022/09/26 00:22:02;;;;;;;;;;;;;;;6.89;100.00;97379.25;5009857;28;19926;-44
2022/09/26 00:24:29;;;;;;;;;;;;;;;6.89;100.00;97363.56;5009439;28;19983;-44
2022/09/26 00:26:57;;;;;;;;;;;;;;;6.95;100.00;97362.38;5008253;28;19925;-45
2022/09/26 00:29:24;;;;;;;;;;;;;;;7.03;100.00;97355.75;5008693;28;19925;-44
2022/09/26 00:31:52;;;;;;;;;;;;;;;7.03;100.00;97355.75;5009647;28;19972;-44
2022/09/26 00:34:21;;;;;;;;;;;;;;;6.99;100.00;97349.00;5010127;28;20385;-43
2022/09/26 00:36:48;;;;;;;;;;;;;;;6.93;100.00;97344.16;5008674;28;19925;-46
2022/09/26 00:39:16;;;;;;;;;;;;;;;7.02;100.00;97340.97;5009011;28;19991;-44
2022/09/26 00:41:43;;;;;;;;;;;;;;;7.10;100.00;97346.56;5009386;28;19929;-43
2022/09/26 00:44:29;;;;;;;;;;;;;;;7.28;100.00;97342.00;5007991;28;19929;-44
2022/09/26 00:46:57;;;;;;;;;;;;;;;7.34;100.00;97347.69;5010005;28;19959;-44
2022/09/26 00:49:28;;;;;;;;;;;;;;;7.51;100.00;97347.47;5009074;28;19925;-44
2022/09/26 00:51:57;;;;;;;;;;;;;;;7.57;100.00;97347.06;5009736;28;20143;-44
2022/09/26 00:54:25;;;;;;;;;;;;;;;7.68;100.00;97349.03;5009987;28;19925;-44
2022/09/26 00:56:56;;;;;;;;;;;;;;;7.65;100.00;97342.19;5008433;28;20016;-46
2022/09/26 00:59:25;;;;;;;;;;;;;;;7.69;100.00;97335.00;5009260;28;19926;-44
2022/09/26 01:01:53;;;;;;;;;;;;;;;7.75;100.00;97332.84;4991229;28;19931;-44
2022/09/26 01:04:21;;;;;;;;;;;;;;;7.80;100.00;97320.28;5008136;28;20197;-46
2022/09/26 01:06:50;;;;;;;;;;;;;;;7.87;100.00;97323.38;5002012;28;20008;-44
2022/09/26 01:09:18;;;;;;;;;;;;;;;7.91;100.00;97323.06;4984944;28;20389;-44
2022/09/26 01:11:45;;;;;;;;;;;;;;;7.87;100.00;97329.44;4989346;28;19929;-44
2022/09/26 01:14:14;;;;;;;;;;;;;;;7.91;100.00;97323.06;4987731;28;19930;-44
2022/09/26 01:16:44;;;;;;;;;;;;;;;8.11;100.00;97320.94;4989684;28;19934;-44
2022/09/26 01:19:16;;;;;;;;;;;;;;;8.12;100.00;97317.38;5007740;28;20377;-43
2022/09/26 01:22:06;;;;;;;;;;;;;;;8.13;100.00;97316.44;5007541;28;19936;-45
2022/09/26 01:24:45;;;;;;;;;;;;;;;8.04;100.00;97305.63;5006267;28;19933;-45
2022/09/26 01:27:36;;;;;;;;;;;;;;;8.12;100.00;97306.91;4987476;28;19926;-44
2022/09/26 01:30:10;;;;;;;;;;;;;;;8.27;100.00;97305.88;4988029;28;19937;-47
2022/09/26 01:32:58;;;;;;;;;;;;;;;8.40;100.00;97317.22;4988000;28;19926;-43
2022/09/26 01:35:40;;;;;;;;;;;;;;;8.22;100.00;97321.91;4989298;28;19925;-47
2022/09/26 01:38:12;;;;;;;;;;;;;;;8.23;100.00;97318.34;4996809;28;19926;-43
2022/09/26 01:40:43;;;;;;;;;;;;;;;8.18;100.00;97322.19;4991277;28;19926;-47
2022/09/26 01:43:13;;;;;;;;;;;;;;;8.19;100.00;97310.81;5007926;28;19930;-44
2022/09/26 01:45:45;;;;;;;;;;;;;;;8.15;100.00;97310.16;5008594;28;19930;-44
2022/09/26 01:48:17;;;;;;;;;;;;;;;8.17;100.00;97308.28;5002160;28;19929;-45
2022/09/26 01:50:47;;;;;;;;;;;;;;;8.21;100.00;97311.53;4990887;28;20340;-44
2022/09/26 01:53:17;;;;;;;;;;;;;;;8.19;100.00;97308.19;4987695;28;19932;-44
2022/09/26 01:55:50;;;;;;;;;;;;;;;8.17;100.00;97305.66;4986897;28;20360;-45
2022/09/26 01:58:20;;;;;;;;;;;;;;;8.12;100.00;97304.28;4994774;28;20367;-45
2022/09/26 02:00:50;;;;;;;;;;;;;;;8.13;100.00;97305.00;4991572;28;19926;-44
2022/09/26 02:03:21;;;;;;;;;;;;;;;8.15;100.00;97307.53;4989529;28;20013;-44
2022/09/26 02:05:51;;;;;;;;;;;;;;;8.13;100.00;97299.75;4992578;28;20381;-44
2022/09/26 02:08:20;;;;;;;;;;;;;;;8.11;100.00;97300.00;4994183;28;20332;-44
2022/09/26 02:10:49;;;;;;;;;;;;;;;8.09;100.00;97293.06;4992669;28;19932;-44
2022/09/26 02:13:18;;;;;;;;;;;;;;;8.13;100.00;97297.16;4993110;28;20012;-43
2022/09/26 02:15:47;;;;;;;;;;;;;;;8.09;100.00;97276.50;4990838;28;19925;-44
2022/09/26 02:18:20;;;;;;;;;;;;;;;8.15;100.00;97281.31;4992813;28;19948;-45
2022/09/26 02:20:49;;;;;;;;;;;;;;;8.17;100.00;97281.22;4980260;28;19965;-45
2022/09/26 02:23:16;;;;;;;;;;;;;;;8.22;100.00;97287.03;4994804;28;19948;-44
2022/09/26 02:25:44;;;;;;;;;;;;;;;8.23;100.00;97278.22;4992693;28;19925;-43
2022/09/26 02:28:13;;;;;;;;;;;;;;;8.18;100.00;97275.03;4994558;28;20411;-44
2022/09/26 02:30:40;;;;;;;;;;;;;;;8.21;100.00;97280.06;4994625;28;20028;-44
2022/09/26 02:33:08;;;;;;;;;;;;;;;8.22;100.00;97273.91;5010139;28;19929;-47
2022/09/26 02:35:56;;;;;;;;;;;;;;;8.23;100.00;97272.97;4994460;28;20856;-45
2022/09/26 02:38:28;;;;;;;;;;;;;;;8.23;100.00;97272.97;4993539;28;19926;-44
2022/09/26 02:41:17;;;;;;;;;;;;;;;8.26;100.00;97280.63;5011241;28;20644;-44
2022/09/26 02:43:55;;;;;;;;;;;;;;;8.18;100.00;97282.91;4993696;28;20029;-47
2022/09/26 02:46:39;;;;;;;;;;;;;;;8.31;100.00;97276.75;4991022;28;20385;-45
2022/09/26 02:49:27;;;;;;;;;;;;;;;8.34;100.00;97280.94;4990082;28;20008;-49
2022/09/26 02:52:07;;;;;;;;;;;;;;;8.30;100.00;97274.25;4991282;28;20348;-43
2022/09/26 02:54:42;;;;;;;;;;;;;;;8.31;100.00;97275.91;4980406;28;19926;-44
2022/09/26 02:57:16;;;;;;;;;;;;;;;8.34;100.00;97267.84;4991889;28;20156;-45
2022/09/26 02:59:48;;;;;;;;;;;;;;;8.38;100.00;97261.47;4974353;28;19930;-44
2022/09/26 03:02:18;;;;;;;;;;;;;;;8.43;100.00;97269.84;4981257;28;20004;-44
2022/09/26 03:05:09;;;;;;;;;;;;;;;8.41;100.00;97258.63;5006039;28;20369;-44
2022/09/26 03:07:43;;;;;;;;;;;;;;;8.34;100.00;97258.19;5005032;28;20428;-44
2022/09/26 03:10:13;;;;;;;;;;;;;;;8.32;100.00;97254.00;4982348;28;20016;-44
2022/09/26 03:12:43;;;;;;;;;;;;;;;8.32;100.00;97251.38;4992678;28;19925;-46
2022/09/26 03:15:11;;;;;;;;;;;;;;;8.33;100.00;97245.22;5011288;28;19925;-44
2022/09/26 03:17:40;;;;;;;;;;;;;;;8.34;100.00;97244.25;5006710;28;20009;-45
2022/09/26 03:20:10;;;;;;;;;;;;;;;8.30;100.00;97243.63;4992800;28;19925;-47
2022/09/26 03:22:41;;;;;;;;;;;;;;;8.34;100.00;97246.88;4993193;28;19926;-44
2022/09/26 03:25:11;;;;;;;;;;;;;;;8.33;100.00;97245.22;4993710;28;19929;-44
2022/09/26 03:27:45;;;;;;;;;;;;;;;8.43;100.00;97233.16;4988785;28;20377;-44
2022/09/26 03:30:14;;;;;;;;;;;;;;;8.45;100.00;97226.03;4992452;28;19929;-44
2022/09/26 03:32:51;;;;;;;;;;;;;;;8.45;100.00;97226.84;4979009;28;20024;-43
2022/09/26 03:35:19;;;;;;;;;;;;;;;8.52;100.00;97229.91;5003528;28;20348;-44
2022/09/26 03:37:48;;;;;;;;;;;;;;;8.51;100.00;97225.59;4974904;28;20377;-44
2022/09/26 03:40:17;;;;;;;;;;;;;;;8.54;100.00;97220.16;4988980;28;19933;-44
2022/09/26 03:43:03;;;;;;;;;;;;;;;8.52;100.00;97220.25;4991496;28;19926;-44
2022/09/26 03:45:33;;;;;;;;;;;;;;;8.46;100.00;97217.22;4993412;28;19926;-46
2022/09/26 03:48:10;;;;;;;;;;;;;;;8.53;100.00;97215.84;4986229;28;19926;-43
2022/09/26 03:50:38;;;;;;;;;;;;;;;8.52;100.00;97214.19;4993503;28;20396;-45
2022/09/26 03:53:08;;;;;;;;;;;;;;;8.42;100.00;97215.75;4992135;28;19972;-44
2022/09/26 03:55:35;;;;;;;;;;;;;;;8.49;100.00;97204.75;5006744;28;19965;-44
2022/09/26 03:58:02;;;;;;;;;;;;;;;8.58;100.00;97206.72;5010249;28;20265;-45
2022/09/26 04:00:35;;;;;;;;;;;;;;;8.55;100.00;97206.94;4991904;28;19932;-43
2022/09/26 04:03:03;;;;;;;;;;;;;;;8.47;100.00;97201.38;5006993;28;19979;-44
2022/09/26 04:05:39;;;;;;;;;;;;;;;8.59;100.00;97202.34;4991260;28;19933;-43
2022/09/26 04:08:09;;;;;;;;;;;;;;;8.57;100.00;97193.72;5009617;28;20368;-44
2022/09/26 04:10:37;;;;;;;;;;;;;;;8.70;100.00;97195.38;4989951;28;19935;-46
2022/09/26 04:13:06;;;;;;;;;;;;;;;8.70;100.00;97186.69;5004600;28;19926;-44
2022/09/26 04:15:34;;;;;;;;;;;;;;;8.68;100.00;97186.78;4975052;28;19930;-45
2022/09/26 04:18:10;;;;;;;;;;;;;;;8.73;100.00;97184.69;4987196;28;19984;-43
2022/09/26 04:20:37;;;;;;;;;;;;;;;8.80;100.00;97190.31;4988115;28;19936;-44
2022/09/26 04:23:04;;;;;;;;;;;;;;;8.81;100.00;97190.22;4988495;28;20024;-44
2022/09/26 04:25:36;;;;;;;;;;;;;;;8.75;100.00;97187.19;4986419;28;20358;-45
2022/09/26 04:28:03;;;;;;;;;;;;;;;8.77;100.00;97188.75;4970959;28;19930;-44
2022/09/26 04:30:30;;;;;;;;;;;;;;;8.70;100.00;97190.13;4974287;28;19930;-44
2022/09/26 04:33:01;;;;;;;;;;;;;;;8.65;100.00;97192.25;4987587;28;19925;-45
2022/09/26 04:35:34;;;;;;;;;;;;;;;8.64;100.00;97190.59;4970292;28;20008;-45
2022/09/26 04:38:01;;;;;;;;;;;;;;;8.62;100.00;97189.84;4984300;28;19932;-44
2022/09/26 04:40:30;;;;;;;;;;;;;;;8.61;100.00;97190.78;4986000;28;19926;-44
2022/09/26 04:43:10;;;;;;;;;;;;;;;8.65;100.00;97187.00;4989310;28;20035;-45
2022/09/26 04:45:40;;;;;;;;;;;;;;;8.74;100.00;97190.78;4983422;28;20433;-47
2022/09/26 04:48:09;;;;;;;;;;;;;;;8.79;100.00;97186.03;5004746;28;20024;-44
2022/09/26 04:50:55;;;;;;;;;;;;;;;8.74;100.00;97181.09;4973637;28;20394;-45
2022/09/26 04:53:22;;;;;;;;;;;;;;;8.73;100.00;97183.84;4980169;28;19926;-45
2022/09/26 04:56:02;;;;;;;;;;;;;;;8.72;100.00;97188.25;4978890;28;20511;-46
2022/09/26 04:58:33;;;;;;;;;;;;;;;8.71;100.00;97191.81;4977044;28;20456;-48
2022/09/26 05:01:02;;;;;;;;;;;;;;;8.74;100.00;97188.97;4976120;28;19928;-45
2022/09/26 05:03:37;;;;;;;;;;;;;;;8.77;100.00;97186.13;5001635;28;20020;-47
2022/09/26 05:06:07;;;;;;;;;;;;;;;8.74;100.00;97196.03;4980156;28;19961;-44
2022/09/26 05:08:34;;;;;;;;;;;;;;;8.82;100.00;97194.50;4984019;28;19932;-44
2022/09/26 05:11:02;;;;;;;;;;;;;;;8.78;100.00;97190.44;4965093;28;20614;-46
2022/09/26 05:13:36;;;;;;;;;;;;;;;8.79;100.00;97194.75;4979181;28;21602;-47
2022/09/26 05:16:07;;;;;;;;;;;;;;;8.86;100.00;97190.75;4983216;28;20420;-46
2022/09/26 05:18:38;;;;;;;;;;;;;;;8.83;100.00;97193.59;4978406;28;20388;-46
2022/09/26 05:21:07;;;;;;;;;;;;;;;8.88;100.00;97194.09;4976929;28;19933;-45
2022/09/26 05:26:23;;;;;;;;;;;;;;;8.81;100.00;97186.78;4983395;28;20369;-48
2022/09/26 05:28:53;;;;;;;;;;;;;;;8.81;100.00;97189.41;4976927;28;19984;-44
2022/09/26 05:31:27;;;;;;;;;;;;;;;8.76;100.00;97183.63;4976114;28;19930;-44
2022/09/26 05:33:56;;;;;;;;;;;;;;;8.78;100.00;97193.06;4974536;28;19933;-45
2022/09/26 05:36:23;;;;;;;;;;;;;;;8.74;100.00;97191.59;4982998;28;19932;-44
2022/09/26 05:38:51;;;;;;;;;;;;;;;8.70;100.00;97187.50;4979689;28;19925;-45
2022/09/26 05:41:18;;;;;;;;;;;;;;;8.73;100.00;97184.69;4980855;28;19926;-50
2022/09/26 05:43:46;;;;;;;;;;;;;;;8.78;100.00;97187.00;4963712;28;20549;-46
2022/09/26 05:46:15;;;;;;;;;;;;;;;8.80;100.00;97182.47;4980763;28;20449;-46
2022/09/26 05:48:47;;;;;;;;;;;;;;;8.82;100.00;97188.44;4981667;28;19926;-46
2022/09/26 05:51:22;;;;;;;;;;;;;;;8.87;100.00;97187.19;4979813;28;19926;-46
2022/09/26 05:53:49;;;;;;;;;;;;;;;8.88;100.00;97185.38;4986994;28;19941;-44
2022/09/26 05:56:20;;;;;;;;;;;;;;;8.91;100.00;97179.91;4976692;28;19977;-45
2022/09/26 05:58:59;;;;;;;;;;;;;;;8.96;100.00;97183.06;4987290;28;20012;-44
2022/09/26 06:01:51;;;;;;;;;;;;;;;9.02;100.00;97178.22;4982880;28;20000;-45
2022/09/26 06:04:32;;;;;;;;;;;;;;;9.06;100.00;97178.81;4978310;28;19932;-47
2022/09/26 06:07:20;;;;;;;;;;;;;;;9.21;100.00;97185.59;4984987;28;20149;-45
2022/09/26 06:09:47;;;;;;;;;;;;;;;9.23;100.00;97181.94;4977215;28;20392;-44
2022/09/26 06:12:40;;;;;;;;;;;;;;;9.26;100.00;97179.06;4981146;28;20040;-45
2022/09/26 06:15:09;;;;;;;;;;;;;;;9.37;100.00;97181.78;4984683;28;19929;-46
2022/09/26 06:17:38;;;;;;;;;;;;;;;9.46;100.00;97172.41;4984389;28;19949;-46
2022/09/26 06:20:07;;;;;;;;;;;;;;;9.70;100.00;97176.69;4981521;28;19948;-45
2022/09/26 06:22:40;;;;;;;;;;;;;;;9.66;100.00;97179.66;4968951;28;19961;-44
2022/09/26 06:25:07;;;;;;;;;;;;;;;9.75;100.00;97177.19;4983784;28;19930;-46
2022/09/26 06:27:37;;;;;;;;;;;;;;;9.58;100.00;97171.50;4981911;28;19933;-43
2022/09/26 06:30:06;;;;;;;;;;;;;;;9.72;100.00;97174.78;4983703;28;19930;-45
2022/09/26 06:32:35;;;;;;;;;;;;;;;9.71;100.00;97180.16;4982196;28;19930;-45
2022/09/26 06:35:18;;;;;;;;;;;;;;;9.78;100.00;97173.50;4984896;28;20025;-43
2022/09/26 06:38:03;;;;;;;;;;;;;;;9.98;100.00;97167.56;4980944;28;19926;-45
2022/09/26 06:40:32;;;;;;;;;;;;;;;10.16;100.00;97168.81;4984296;28;19929;-44
2022/09/26 06:43:00;;;;;;;;;;;;;;;10.26;100.00;97165.38;4988129;28;20013;-45
2022/09/26 06:45:47;;;;;;;;;;;;;;;10.15;100.00;97169.78;4987528;28;19926;-44
2022/09/26 06:48:26;;;;;;;;;;;;;;;10.02;100.00;97161.97;4982685;28;19937;-43
2022/09/26 06:51:00;;;;;;;;;;;;;;;10.02;100.00;97166.38;4997577;28;19929;-45
2022/09/26 06:53:29;;;;;;;;;;;;;;;9.99;100.00;97170.09;4996242;28;19929;-47
2022/09/26 06:55:59;;;;;;;;;;;;;;;9.98;100.00;97175.44;4981951;28;19940;-45
2022/09/26 06:58:27;;;;;;;;;;;;;;;9.95;100.00;97173.09;4982822;28;19932;-45
2022/09/26 07:01:02;;;;;;;;;;;;;;;10.07;100.00;97164.25;4987587;28;20341;-45
2022/09/26 07:03:47;;;;;;;;;;;;;;;10.05;100.00;97174.88;4987724;28;19930;-44
2022/09/26 07:06:45;;;;;;;;;;;;;;;10.14;100.00;97173.38;4928138;29;19981;-45
2022/09/26 07:09:13;;;;;;;;;;;;;;;10.26;100.00;97170.63;4914661;29;20026;-45
2022/09/26 07:12:07;;;;;;;;;;;;;;;10.20;100.00;97180.75;4895329;29;19938;-46
2022/09/26 07:14:36;;;;;;;;;;;;;;;10.63;100.00;97177.38;4907644;29;19947;-44
2022/09/26 07:17:18;;;;;;;;;;;;;;;10.56;100.00;97181.41;4907688;29;20014;-45
2022/09/26 07:19:58;;;;;;;;;;;;;;;10.64;100.00;97173.78;4898462;29;19938;-46
2022/09/26 07:22:45;;;;;;;;;;;;;;;10.44;100.00;97177.09;4897453;29;20307;-48
2022/09/26 07:25:13;;;;;;;;;;;;;;;10.58;100.00;97176.03;4901697;29;19935;-46
2022/09/26 07:27:41;;;;;;;;;;;;;;;10.63;100.00;97176.50;4897415;29;20034;-46
2022/09/26 07:30:09;;;;;;;;;;;;;;;10.88;100.00;97184.19;4908395;29;19934;-46
2022/09/26 07:32:47;;;;;;;;;;;;;;;11.08;100.00;97184.28;4878768;29;20059;-46
2022/09/26 07:35:36;;;;;;;;;;;;;;;11.10;100.00;97186.81;4899463;29;19931;-44
2022/09/26 07:38:05;;;;;;;;;;;;;;;10.96;100.00;97184.44;4878347;29;19935;-45
2022/09/26 07:40:32;;;;;;;;;;;;;;;11.14;100.00;97183.78;4895843;29;19942;-45
2022/09/26 07:43:00;;;;;;;;;;;;;;;11.26;100.00;97188.09;4915055;29;20325;-44
2022/09/26 07:51:37;;;;;;;;;;;;;;;11.87;100.00;97188.38;4928085;29;19931;-44
2022/09/26 07:54:09;;;;;;;;;;;;;;;11.67;100.00;97184.72;4926530;29;19934;-44
2022/09/26 07:56:59;;;;;;;;;;;;;;;12.01;100.00;97180.19;4926210;29;19934;-45
2022/09/26 07:59:50;;;;;;;;;;;;;;;11.85;100.00;97175.31;4920773;29;20283;-44
2022/09/26 08:02:39;;;;;;;;;;;;;;;11.86;100.00;97171.69;4918397;29;20038;-44
2022/09/26 08:05:07;;;;;;;;;;;;;;;11.95;100.00;97175.41;4935948;29;20041;-46
2022/09/26 08:07:36;;;;;;;;;;;;;;;11.71;100.00;97178.25;4928222;29;19930;-47
2022/09/26 08:10:19;;;;;;;;;;;;;;;11.81;100.00;97181.81;4912678;29;20306;-46
2022/09/26 08:13:05;;;;;;;;;;;;;;;11.84;100.00;97181.56;4929173;29;19954;-48
2022/09/26 08:15:51;;;;;;;;;;;;;;;11.79;100.00;97170.53;4930004;29;19927;-45
2022/09/26 08:18:24;;;;;;;;;;;;;;;11.89;100.00;97174.09;4915908;29;19927;-47
2022/09/26 08:20:51;;;;;;;;;;;;;;;11.93;100.00;97167.63;4904105;29;19962;-45
2022/09/26 08:23:18;;;;;;;;;;;;;;;12.04;100.00;97167.56;4952017;28;19937;-45
2022/09/26 08:25:58;;;;;;;;;;;;;;;12.19;100.00;97158.38;4968893;28;19974;-45
2022/09/26 08:28:47;;;;;;;;;;;;;;;12.16;100.00;97157.81;4966346;28;19926;-45
2022/09/26 08:31:15;;;;;;;;;;;;;;;12.12;100.00;97164.31;4958167;28;20030;-48
2022/09/26 08:33:43;;;;;;;;;;;;;;;12.12;100.00;97159.84;4965474;28;20144;-44
2022/09/26 08:36:11;;;;;;;;;;;;;;;12.22;100.00;97163.41;4980339;28;19934;-46
2022/09/26 08:39:01;;;;;;;;;;;;;;;12.30;100.00;97162.75;4961332;28;20049;-46
2022/09/26 08:42:08;;;;;;;;;;;;;;;12.36;100.00;97173.63;4971110;28;19930;-44
2022/09/26 08:46:13;;;;;;;;;;;;;;;12.61;100.00;97161.81;4969701;28;19926;-45
2022/09/26 08:48:18;;;;;;;;;;;;;;;12.80;100.00;97162.72;4958887;28;19930;-46
2022/09/26 08:50:58;;;;;;;;;;;;;;;12.48;100.00;97158.56;4965354;28;20401;-47
2022/09/26 08:53:27;;;;;;;;;;;;;;;12.80;100.00;97162.72;4968749;28;19964;-44
2022/09/26 08:55:57;;;;;;;;;;;;;;;12.43;100.00;97156.31;4982855;28;19926;-50
2022/09/26 08:58:28;;;;;;;;;;;;;;;12.47;100.00;97163.00;4982545;28;20009;-45
2022/09/26 09:01:00;;;;;;;;;;;;;;;12.71;100.00;97158.22;4966202;28;19926;-46
2022/09/26 09:03:29;;;;;;;;;;;;;;;12.85;100.00;97154.41;4964665;28;19961;-47
2022/09/26 09:06:00;;;;;;;;;;;;;;;12.98;100.00;97158.50;4969394;28;20243;-48
2022/09/26 09:08:35;;;;;;;;;;;;;;;12.74;100.00;97152.69;4968262;28;19930;-47
2022/09/26 09:11:15;;;;;;;;;;;;;;;13.63;100.00;97150.03;4973967;28;19937;-46
2022/09/26 09:14:03;;;;;;;;;;;;;;;13.28;100.00;97147.91;4979217;28;20457;-45
2022/09/26 09:16:58;;;;;;;;;;;;;;;13.16;100.00;97149.00;4995365;28;20296;-45
2022/09/26 09:19:50;;;;;;;;;;;;;;;13.17;100.00;97148.00;4987834;28;20408;-46
2022/09/26 09:23:02;;;;;;;;;;;;;;;13.44;100.00;97144.72;4981090;28;19930;-49
2022/09/26 09:25:47;;;;;;;;;;;;;;;13.35;100.00;97138.44;4978343;28;19965;-45
2022/09/26 09:28:26;;;;;;;;;;;;;;;13.37;100.00;97133.84;4977080;28;20052;-46
2022/09/26 09:30:57;;;;;;;;;;;;;;;13.19;100.00;97143.41;4981924;28;19933;-54
2022/09/26 09:33:43;;;;;;;;;;;;;;;13.63;100.00;97137.63;4978872;28;19954;-47
2022/09/26 09:36:21;;;;;;;;;;;;;;;13.49;100.00;97140.69;4981141;28;19933;-46
2022/09/26 09:39:07;;;;;;;;;;;;;;;13.61;100.00;97134.31;4972566;28;19933;-44
2022/09/26 09:41:51;;;;;;;;;;;;;;;13.42;100.00;97136.09;4974996;28;20409;-46
2022/09/26 09:44:30;;;;;;;;;;;;;;;13.30;100.00;97132.72;4983412;28;20012;-45
2022/09/26 09:46:57;;;;;;;;;;;;;;;13.19;100.00;97139.94;4989197;28;19948;-44
2022/09/26 09:49:26;;;;;;;;;;;;;;;13.01;100.00;97136.25;4982299;28;20464;-45
2022/09/26 09:52:04;;;;;;;;;;;;;;;13.09;100.00;97139.94;4969493;28;19926;-45
2022/09/26 09:54:40;;;;;;;;;;;;;;;12.98;100.00;97145.28;4974088;28;20290;-47
2022/09/26 09:57:16;;;;;;;;;;;;;;;12.79;100.00;97144.38;4967437;28;19934;-46
2022/09/26 09:59:54;;;;;;;;;;;;;;;13.23;100.00;97142.19;4971487;28;19927;-47
2022/09/26 10:02:28;;;;;;;;;;;;;;;12.93;100.00;97139.56;4983781;28;19929;-44
2022/09/26 10:05:05;;;;;;;;;;;;;;;13.28;100.00;97139.97;4958458;28;20340;-46
2022/09/26 10:07:32;;;;;;;;;;;;;;;13.07;100.00;97139.22;4982768;28;20008;-47
2022/09/26 10:10:21;;;;;;;;;;;;;;;13.23;100.00;97130.78;4990142;28;20020;-46
2022/09/26 10:13:18;;;;;;;;;;;;;;;13.14;100.00;97135.06;4998263;28;19936;-44
2022/09/26 10:16:08;;;;;;;;;;;;;;;13.19;100.00;97138.13;4992957;28;20034;-46
2022/09/26 10:18:59;;;;;;;;;;;;;;;13.10;100.00;97136.31;4991801;28;19925;-45
2022/09/26 10:21:32;;;;;;;;;;;;;;;12.98;100.00;97141.81;5005646;28;19926;-47
2022/09/26 10:24:02;;;;;;;;;;;;;;;12.68;100.00;97140.03;4991590;28;19926;-46
2022/09/26 10:26:48;;;;;;;;;;;;;;;12.56;100.00;97149.00;4990294;28;19933;-48
2022/09/26 10:29:33;;;;;;;;;;;;;;;12.33;100.00;97129.03;4989073;28;20024;-46
2022/09/26 10:32:00;;;;;;;;;;;;;;;12.41;100.00;97134.50;4983619;28;20055;-45
2022/09/26 10:34:30;;;;;;;;;;;;;;;13.09;100.00;97124.09;4981115;28;19957;-45
2022/09/26 10:37:18;;;;;;;;;;;;;;;13.16;100.00;97119.94;4994748;28;19927;-45
2022/09/26 10:42:37;;;;;;;;;;;;;;;13.95;100.00;97110.88;4994201;28;20324;-47
2022/09/26 10:45:11;;;;;;;;;;;;;;;13.93;100.00;97110.22;4985488;28;19961;-44
2022/09/26 10:48:11;;;;;;;;;;;;;;;13.36;100.00;97111.06;4972124;28;19932;-48
2022/09/26 10:51:19;;;;;;;;;;;;;;;13.50;100.00;97110.66;4992870;28;19933;-45
2022/09/26 10:53:59;;;;;;;;;;;;;;;14.19;100.00;97104.22;5008728;28;19979;-44
2022/09/26 10:56:29;;;;;;;;;;;;;;;14.16;100.00;97099.22;4980728;28;20010;-47
2022/09/26 10:58:58;;;;;;;;;;;;;;;13.85;100.00;97091.59;5001035;28;19983;-47
2022/09/26 11:01:28;;;;;;;;;;;;;;;14.01;100.00;97094.47;4988519;28;19925;-44
2022/09/26 11:03:59;;;;;;;;;;;;;;;13.39;100.00;97087.00;5000869;28;19925;-44
2022/09/26 11:06:27;;;;;;;;;;;;;;;14.66;100.00;97085.66;4997202;28;19925;-45
2022/09/26 11:09:03;;;;;;;;;;;;;;;14.26;100.00;97089.44;4999193;28;19933;-46
2022/09/26 11:11:37;;;;;;;;;;;;;;;13.66;100.00;97091.59;5004937;28;19925;-46
2022/09/26 11:14:07;;;;;;;;;;;;;;;14.05;100.00;97083.47;4985227;28;19930;-45
2022/09/26 11:16:51;;;;;;;;;;;;;;;13.79;100.00;97085.06;5002931;28;19929;-46
2022/09/26 11:19:26;;;;;;;;;;;;;;;13.66;100.00;97084.50;4986993;28;19929;-44
2022/09/26 11:21:57;;;;;;;;;;;;;;;13.50;100.00;97091.31;5000280;28;19932;-46
2022/09/26 11:24:36;;;;;;;;;;;;;;;12.95;100.00;97092.75;5006514;28;20386;-48
2022/09/26 11:27:13;;;;;;;;;;;;;;;13.17;100.00;97087.25;4995110;28;19969;-44
2022/09/26 11:29:43;;;;;;;;;;;;;;;12.84;100.00;97082.31;5006871;28;20012;-47
2022/09/26 11:32:17;;;;;;;;;;;;;;;12.97;100.00;97080.25;4987827;28;19996;-47
2022/09/26 11:35:01;;;;;;;;;;;;;;;12.91;100.00;97083.44;5002723;28;20003;-45
2022/09/26 11:37:49;;;;;;;;;;;;;;;12.57;100.00;97079.44;5000079;28;19933;-48
2022/09/26 11:40:34;;;;;;;;;;;;;;;13.11;100.00;97084.34;4991085;28;19925;-45
2022/09/26 11:43:12;;;;;;;;;;;;;;;13.52;100.00;97068.25;5007275;28;20805;-46
2022/09/26 11:45:57;;;;;;;;;;;;;;;13.40;100.00;97072.81;4989455;28;20008;-47
2022/09/26 11:48:52;;;;;;;;;;;;;;;13.60;100.00;97063.94;5005127;28;19969;-47
2022/09/26 11:51:44;;;;;;;;;;;;;;;13.95;100.00;97066.78;5004408;28;19925;-46
2022/09/26 11:54:26;;;;;;;;;;;;;;;13.46;100.00;97066.97;5006701;28;20268;-47
2022/09/26 11:57:02;;;;;;;;;;;;;;;13.32;100.00;97062.09;5003324;28;20020;-45
2022/09/26 11:59:47;;;;;;;;;;;;;;;12.89;100.00;97060.78;5006799;28;20492;-44
2022/09/26 12:02:31;;;;;;;;;;;;;;;13.01;100.00;97063.19;4993253;28;19932;-46
2022/09/26 12:05:13;;;;;;;;;;;;;;;13.14;100.00;97061.13;5006261;28;19980;-47
2022/09/26 12:07:45;;;;;;;;;;;;;;;13.39;100.00;97057.09;5004381;28;19972;-44
2022/09/26 12:10:18;;;;;;;;;;;;;;;13.48;100.00;97049.16;5007600;28;19929;-45
2022/09/26 12:12:55;;;;;;;;;;;;;;;13.36;100.00;97057.38;5006727;28;19926;-46
2022/09/26 12:15:27;;;;;;;;;;;;;;;13.31;100.00;97049.03;5003673;28;19987;-46
2022/09/26 12:17:58;;;;;;;;;;;;;;;13.04;100.00;97054.94;5006228;28;19937;-54
2022/09/26 12:20:33;;;;;;;;;;;;;;;13.21;100.00;97053.47;5004005;28;19935;-47
2022/09/26 12:23:04;;;;;;;;;;;;;;;14.23;100.00;97039.47;5005041;28;20008;-46
2022/09/26 12:25:40;;;;;;;;;;;;;;;14.22;100.00;97034.31;4987711;28;20351;-47
2022/09/26 12:28:16;;;;;;;;;;;;;;;13.93;100.00;97037.03;5004424;28;19926;-48
2022/09/26 12:30:48;;;;;;;;;;;;;;;14.13;100.00;97040.44;5004623;28;19936;-49
2022/09/26 12:33:29;;;;;;;;;;;;;;;13.85;100.00;97034.22;5004610;28;20404;-45
2022/09/26 12:36:03;;;;;;;;;;;;;;;14.37;100.00;97036.34;5004906;28;20016;-46
2022/09/26 12:38:38;;;;;;;;;;;;;;;14.03;100.00;97037.81;5003260;28;19949;-46
2022/09/26 12:41:25;;;;;;;;;;;;;;;13.64;100.00;97045.97;5004663;28;20033;-45
2022/09/26 12:44:08;;;;;;;;;;;;;;;13.76;100.00;97032.44;5006912;28;19997;-45
2022/09/26 12:46:52;;;;;;;;;;;;;;;13.49;100.00;97035.00;5007429;28;20641;-45
2022/09/26 12:49:29;;;;;;;;;;;;;;;13.39;100.00;97041.25;5006354;28;20296;-45
2022/09/26 12:52:03;;;;;;;;;;;;;;;12.97;100.00;97038.03;5006550;28;19929;-47
2022/09/26 12:54:39;;;;;;;;;;;;;;;13.04;100.00;97031.19;5003787;28;19933;-46
2022/09/26 12:57:12;;;;;;;;;;;;;;;13.55;100.00;97034.41;5006423;28;19925;-47
2022/09/26 12:59:57;;;;;;;;;;;;;;;13.46;100.00;97026.50;5003214;28;19987;-48
2022/09/26 13:02:39;;;;;;;;;;;;;;;13.67;100.00;97024.53;5005886;28;19952;-48
2022/09/26 13:05:26;;;;;;;;;;;;;;;13.55;100.00;97023.03;4982566;28;20476;-46
2022/09/26 13:08:01;;;;;;;;;;;;;;;13.42;100.00;97019.84;4924463;29;19934;-47
2022/09/26 13:10:36;;;;;;;;;;;;;;;13.38;100.00;97021.94;4923186;29;19931;-46
2022/09/26 13:13:28;;;;;;;;;;;;;;;13.73;100.00;97026.63;4921369;29;19926;-46
2022/09/26 13:16:03;;;;;;;;;;;;;;;13.75;100.00;97022.88;4906103;29;19969;-48
2022/09/26 13:18:38;;;;;;;;;;;;;;;14.07;100.00;97020.66;4920927;29;20478;-46
2022/09/26 13:21:08;;;;;;;;;;;;;;;14.22;100.00;97015.78;4923006;29;19927;-46
2022/09/26 13:23:39;;;;;;;;;;;;;;;14.24;100.00;97014.66;4922996;29;19926;-44
2022/09/26 13:26:13;;;;;;;;;;;;;;;14.53;100.00;97014.53;4925489;29;20338;-45
2022/09/26 13:28:43;;;;;;;;;;;;;;;14.13;100.00;97014.84;4921831;29;21599;-44
2022/09/26 13:31:15;;;;;;;;;;;;;;;14.19;100.00;97011.63;4923989;29;20418;-45
2022/09/26 13:33:49;;;;;;;;;;;;;;;14.09;100.00;97002.84;4907889;29;19934;-45
2022/09/26 13:36:17;;;;;;;;;;;;;;;14.19;100.00;97003.69;4925339;29;20076;-45